Time;durP1;ratioP1;P1;durP2;ratioP2;P2;SDS_P1;SDS_P2;PMS_P1;PMS_P2;Temp;Humidity;BMP_temperature;BMP_pressure;BME280_temperature;BME280_humidity;BME280_pressure;Samples;Min_cycle;Max_cycle;Signal;HPM_P1;HPM_P2
2020/12/08 00:02:05;;;;;;;40.83;18.23;;;1.20;95.60;;;;;;5025096;28;20018;-89
2020/12/08 00:04:31;;;;;;;42.72;19.23;;;1.20;95.60;;;;;;5034897;28;20030;-91
2020/12/08 00:06:57;;;;;;;35.65;16.10;;;1.20;95.80;;;;;;5030849;28;20132;-88
2020/12/08 00:09:22;;;;;;;46.53;20.27;;;1.20;96.00;;;;;;5034388;28;20013;-89
2020/12/08 00:11:48;;;;;;;42.13;18.85;;;1.30;96.10;;;;;;5026405;28;20089;-88
2020/12/08 00:14:14;;;;;;;41.45;19.35;;;1.40;96.20;;;;;;5034894;28;20033;-88
2020/12/08 00:16:40;;;;;;;42.55;20.27;;;1.50;96.20;;;;;;5034595;28;20470;-88
2020/12/08 00:19:10;;;;;;;42.00;20.50;;;1.60;96.20;;;;;;5034498;28;20026;-89
2020/12/08 00:21:39;;;;;;;39.03;19.10;;;1.70;96.20;;;;;;5025649;28;20022;-89
2020/12/08 00:24:05;;;;;;;46.47;20.85;;;1.80;96.10;;;;;;5016979;28;20121;-89
2020/12/08 00:26:31;;;;;;;45.38;21.80;;;1.80;96.10;;;;;;5025205;28;20474;-88
2020/12/08 00:28:56;;;;;;;33.33;16.13;;;1.90;96.10;;;;;;5015381;28;20045;-89
2020/12/08 00:31:29;;;;;;;41.30;21.17;;;2.00;96.10;;;;;;5029361;28;20022;-89
2020/12/08 00:33:55;;;;;;;42.83;22.35;;;2.10;96.00;;;;;;5025650;28;20041;-88
2020/12/08 00:36:21;;;;;;;44.40;19.83;;;2.20;96.00;;;;;;5032251;28;20022;-89
2020/12/08 00:38:50;;;;;;;38.08;19.52;;;2.20;96.00;;;;;;5018485;28;20026;-89
2020/12/08 00:41:16;;;;;;;35.33;17.45;;;2.20;95.90;;;;;;5028443;28;20032;-88
2020/12/08 00:43:41;;;;;;;39.67;19.48;;;2.30;95.90;;;;;;5033738;28;20087;-88
2020/12/08 00:46:10;;;;;;;39.75;20.27;;;2.30;95.90;;;;;;5033488;28;20026;-88
2020/12/08 00:48:36;;;;;;;36.38;19.83;;;2.40;95.90;;;;;;5033245;28;20367;-88
2020/12/08 00:51:02;;;;;;;41.92;19.08;;;2.40;95.80;;;;;;5033821;28;20116;-88
2020/12/08 00:53:27;;;;;;;33.95;18.27;;;2.40;95.80;;;;;;5032395;28;20535;-88
2020/12/08 00:55:53;;;;;;;36.97;18.75;;;2.40;95.80;;;;;;5032488;28;20033;-87
2020/12/08 00:58:18;;;;;;;42.22;20.23;;;2.40;95.80;;;;;;5033933;28;20537;-88
2020/12/08 01:00:44;;;;;;;43.92;18.45;;;2.50;95.90;;;;;;5034108;28;20041;-88
2020/12/08 01:03:09;;;;;;;40.13;18.67;;;2.50;95.90;;;;;;5034846;28;20021;-88
2020/12/08 01:05:35;;;;;;;39.25;19.77;;;2.50;95.90;;;;;;5026577;28;20029;-89
2020/12/08 01:08:00;;;;;;;40.45;19.50;;;2.50;95.90;;;;;;5032355;28;20026;-88
2020/12/08 01:10:26;;;;;;;42.90;19.35;;;2.50;95.80;;;;;;5026661;28;20029;-88
2020/12/08 01:12:51;;;;;;;39.47;19.27;;;2.60;95.80;;;;;;5034246;28;20036;-88
2020/12/08 01:15:17;;;;;;;39.75;20.20;;;2.60;95.80;;;;;;5030119;28;20115;-88
2020/12/08 01:17:43;;;;;;;38.13;18.85;;;2.60;95.80;;;;;;5023309;28;20054;-88
2020/12/08 01:20:08;;;;;;;40.63;19.35;;;2.60;95.80;;;;;;5033287;28;20032;-88
2020/12/08 01:22:34;;;;;;;38.97;18.35;;;2.60;95.80;;;;;;5027075;28;20038;-88
2020/12/08 01:24:59;;;;;;;38.20;20.00;;;2.60;95.80;;;;;;5031808;28;20025;-89
2020/12/08 01:27:25;;;;;;;38.38;20.42;;;2.60;95.80;;;;;;5032325;28;20065;-89
2020/12/08 01:29:50;;;;;;;38.05;19.13;;;2.60;95.80;;;;;;5032430;28;20026;-89
2020/12/08 01:32:16;;;;;;;39.97;19.73;;;2.60;95.80;;;;;;5033307;28;20029;-90
2020/12/08 01:34:41;;;;;;;40.22;20.10;;;2.60;95.80;;;;;;5031715;28;20040;-89
2020/12/08 01:37:07;;;;;;;42.08;19.63;;;2.70;95.80;;;;;;5023275;28;20026;-89
2020/12/08 01:39:32;;;;;;;37.15;19.27;;;2.70;95.80;;;;;;5028582;28;20116;-89
2020/12/08 01:41:58;;;;;;;36.13;19.05;;;2.70;95.80;;;;;;5019936;28;20026;-90
2020/12/08 01:44:23;;;;;;;41.10;19.88;;;2.70;95.80;;;;;;5029913;28;20497;-89
2020/12/08 01:46:49;;;;;;;39.03;18.67;;;2.80;95.70;;;;;;5032883;28;20026;-89
2020/12/08 01:49:16;;;;;;;38.38;18.70;;;2.80;95.70;;;;;;5032640;28;20056;-89
2020/12/08 01:51:42;;;;;;;34.17;18.40;;;2.70;95.60;;;;;;5032639;28;20025;-89
2020/12/08 01:54:07;;;;;;;35.63;16.77;;;2.60;95.40;;;;;;5013967;28;20069;-89
2020/12/08 01:56:33;;;;;;;35.40;17.13;;;2.50;95.30;;;;;;5025663;28;20108;-89
2020/12/08 01:58:59;;;;;;;39.42;18.73;;;2.50;95.30;;;;;;5032662;28;20115;-89
2020/12/08 02:01:24;;;;;;;38.25;18.55;;;2.30;95.20;;;;;;5032471;28;20500;-89
2020/12/08 02:03:50;;;;;;;33.72;17.65;;;2.20;95.30;;;;;;5029303;28;20025;-89
2020/12/08 02:06:16;;;;;;;35.65;16.92;;;2.10;95.30;;;;;;5027956;28;20022;-90
2020/12/08 02:08:42;;;;;;;35.63;18.58;;;2.00;95.40;;;;;;5030905;28;20076;-89
2020/12/08 02:11:07;;;;;;;32.75;16.17;;;1.90;95.50;;;;;;5029268;28;20029;-87
2020/12/08 02:13:33;;;;;;;33.28;16.30;;;1.80;95.50;;;;;;5018303;28;20398;-88
2020/12/08 02:16:00;;;;;;;33.05;17.30;;;1.80;95.50;;;;;;5028022;28;20022;-88
2020/12/08 02:18:25;;;;;;;35.08;17.20;;;1.70;95.60;;;;;;5032278;28;20083;-88
2020/12/08 02:20:57;;;;;;;33.70;16.40;;;1.70;95.60;;;;;;5032270;28;20017;-88
2020/12/08 02:23:22;;;;;;;34.58;17.58;;;1.60;95.60;;;;;;5029593;28;20018;-88
2020/12/08 02:26:03;;;;;;;36.80;16.30;;;1.60;95.70;;;;;;5032416;28;20025;-88
2020/12/08 02:28:29;;;;;;;34.10;16.25;;;1.50;95.70;;;;;;5022265;28;20033;-88
2020/12/08 02:30:55;;;;;;;37.55;16.02;;;1.50;95.70;;;;;;5032389;28;20030;-89
2020/12/08 02:33:22;;;;;;;36.25;16.30;;;1.40;95.70;;;;;;5028740;28;20131;-88
2020/12/08 02:35:48;;;;;;;38.10;18.15;;;1.30;95.70;;;;;;5029882;28;20367;-89
2020/12/08 02:38:14;;;;;;;38.33;18.05;;;1.30;95.80;;;;;;5026107;28;20156;-88
2020/12/08 02:40:39;;;;;;;41.63;17.63;;;1.30;95.80;;;;;;5025625;28;20109;-89
2020/12/08 02:43:05;;;;;;;35.67;17.02;;;1.30;95.80;;;;;;5018146;28;20038;-89
2020/12/08 02:45:30;;;;;;;39.05;18.25;;;1.30;95.80;;;;;;5032393;28;20026;-89
2020/12/08 02:47:56;;;;;;;34.55;16.77;;;1.20;95.80;;;;;;5032051;28;20037;-89
2020/12/08 02:50:21;;;;;;;40.13;18.60;;;1.20;95.90;;;;;;5030815;28;20120;-89
2020/12/08 02:52:47;;;;;;;39.63;19.55;;;1.20;95.90;;;;;;5029077;28;20455;-88
2020/12/08 02:55:12;;;;;;;38.60;17.80;;;1.10;95.80;;;;;;5019615;28;20033;-89
2020/12/08 02:57:38;;;;;;;35.45;17.65;;;1.10;95.90;;;;;;5034060;28;20384;-89
2020/12/08 03:00:06;;;;;;;37.72;18.65;;;1.10;95.90;;;;;;5023141;28;20071;-90
2020/12/08 03:02:31;;;;;;;42.78;19.70;;;1.00;95.90;;;;;;5034582;28;20025;-90
2020/12/08 03:04:57;;;;;;;36.00;17.17;;;1.00;95.90;;;;;;5031811;28;20022;-89
2020/12/08 03:07:22;;;;;;;39.03;18.27;;;1.00;95.90;;;;;;5032620;28;20026;-90
2020/12/08 03:09:48;;;;;;;45.75;19.52;;;0.90;95.90;;;;;;5021361;28;20022;-90
2020/12/08 03:12:13;;;;;;;39.20;18.13;;;0.90;95.90;;;;;;5021360;28;20029;-89
2020/12/08 03:14:39;;;;;;;33.92;17.83;;;0.80;95.80;;;;;;5035207;28;20036;-90
2020/12/08 03:17:06;;;;;;;35.60;16.27;;;0.80;95.90;;;;;;5022130;28;20044;-90
2020/12/08 03:19:31;;;;;;;35.85;16.80;;;0.70;95.90;;;;;;5036395;28;20079;-89
2020/12/08 03:21:57;;;;;;;37.83;17.85;;;0.70;96.00;;;;;;5034928;28;20025;-89
2020/12/08 03:24:22;;;;;;;38.67;19.20;;;0.70;96.00;;;;;;5035130;28;20397;-88
2020/12/08 03:26:48;;;;;;;36.03;18.20;;;0.70;96.00;;;;;;5031926;28;20025;-89
2020/12/08 03:29:13;;;;;;;41.75;19.55;;;0.70;96.00;;;;;;5021258;28;20116;-89
2020/12/08 03:31:39;;;;;;;45.75;20.52;;;0.70;96.10;;;;;;5035261;28;20026;-90
2020/12/08 03:34:05;;;;;;;50.53;21.17;;;0.60;96.10;;;;;;5034854;28;20112;-90
2020/12/08 03:36:30;;;;;;;39.97;18.88;;;0.70;96.20;;;;;;5026427;28;20406;-89
2020/12/08 03:38:58;;;;;;;41.67;19.58;;;0.70;96.20;;;;;;5034791;28;20478;-91
2020/12/08 03:41:24;;;;;;;36.75;18.50;;;0.70;96.10;;;;;;5031814;28;20034;-88
2020/12/08 03:43:51;;;;;;;47.90;20.83;;;0.70;96.10;;;;;;5035007;28;20052;-89
2020/12/08 03:46:22;;;;;;;45.08;19.75;;;0.70;96.10;;;;;;5034365;28;20029;-89
2020/12/08 03:48:49;;;;;;;45.47;20.02;;;0.70;96.10;;;;;;5034737;28;20029;-89
2020/12/08 03:51:16;;;;;;;42.72;20.85;;;0.70;96.10;;;;;;5034018;28;20025;-89
2020/12/08 03:53:42;;;;;;;40.80;19.98;;;0.70;96.10;;;;;;5034182;28;20041;-89
2020/12/08 03:56:15;;;;;;;44.03;19.90;;;0.60;96.10;;;;;;5026314;28;20025;-89
2020/12/08 03:58:41;;;;;;;45.95;20.63;;;0.60;96.10;;;;;;5034723;28;20056;-88
2020/12/08 04:01:16;;;;;;;43.58;19.27;;;0.60;96.10;;;;;;5034745;28;20026;-88
2020/12/08 04:03:43;;;;;;;43.45;19.15;;;0.60;96.50;;;;;;5034593;28;20032;-88
2020/12/08 04:06:08;;;;;;;38.00;18.92;;;0.60;96.10;;;;;;5033524;28;20049;-88
2020/12/08 04:08:34;;;;;;;34.70;17.27;;;0.50;96.00;;;;;;5036442;28;20037;-89
2020/12/08 04:10:59;;;;;;;40.55;17.63;;;0.50;96.00;;;;;;5028164;28;20555;-89
2020/12/08 04:13:25;;;;;;;38.40;16.48;;;0.50;96.00;;;;;;5032703;28;20602;-89
2020/12/08 04:15:51;;;;;;;46.80;19.25;;;0.40;96.00;;;;;;5031866;28;20034;-89
2020/12/08 04:18:16;;;;;;;44.72;19.23;;;0.30;96.00;;;;;;5028937;28;20493;-89
2020/12/08 04:20:44;;;;;;;33.15;15.73;;;0.30;96.10;;;;;;5034467;28;20021;-89
2020/12/08 04:23:15;;;;;;;35.28;17.13;;;0.30;96.10;;;;;;5032632;28;20048;-88
2020/12/08 04:25:41;;;;;;;35.67;18.02;;;0.20;96.10;;;;;;5028472;28;20104;-88
2020/12/08 04:28:07;;;;;;;38.40;16.52;;;0.20;96.10;;;;;;5033614;28;20629;-88
2020/12/08 04:30:34;;;;;;;49.38;23.10;;;0.20;96.20;;;;;;5034854;28;20486;-88
2020/12/08 04:33:00;;;;;;;42.80;20.10;;;0.20;96.30;;;;;;5033618;28;20120;-88
2020/12/08 04:35:26;;;;;;;43.80;20.35;;;0.30;96.40;;;;;;5030610;28;20041;-88
2020/12/08 04:37:52;;;;;;;48.03;21.83;;;0.30;96.40;;;;;;5019032;28;20390;-89
2020/12/08 04:40:17;;;;;;;43.15;19.88;;;0.30;96.40;;;;;;5024614;28;20021;-88
2020/12/08 04:42:47;;;;;;;51.72;21.90;;;0.30;96.30;;;;;;5017854;28;20026;-88
2020/12/08 04:45:13;;;;;;;45.92;20.90;;;0.30;96.30;;;;;;5029894;28;20052;-88
2020/12/08 04:47:43;;;;;;;49.75;21.40;;;0.40;96.30;;;;;;5034278;28;20478;-88
2020/12/08 04:50:09;;;;;;;47.50;20.98;;;0.40;96.40;;;;;;5032903;28;20036;-88
2020/12/08 04:52:35;;;;;;;50.47;20.23;;;0.40;96.40;;;;;;5032706;28;20060;-88
2020/12/08 04:55:04;;;;;;;48.20;22.02;;;0.40;96.60;;;;;;5037321;28;20041;-88
2020/12/08 04:57:29;;;;;;;51.53;20.92;;;0.50;96.40;;;;;;5036188;28;20108;-88
2020/12/08 05:00:05;;;;;;;43.17;19.10;;;0.50;96.50;;;;;;5033183;28;20072;-89
2020/12/08 05:02:30;;;;;;;54.90;21.73;;;0.50;96.40;;;;;;5037654;28;20025;-88
2020/12/08 05:04:56;;;;;;;49.08;21.88;;;0.50;96.50;;;;;;5032295;28;20117;-87
2020/12/08 05:07:27;;;;;;;41.50;18.75;;;0.60;96.50;;;;;;5029077;28;20061;-88
2020/12/08 05:09:53;;;;;;;41.78;19.17;;;0.60;96.50;;;;;;5029229;28;20036;-89
2020/12/08 05:12:23;;;;;;;44.50;19.50;;;0.60;96.40;;;;;;5015860;28;20022;-89
2020/12/08 05:14:48;;;;;;;47.17;20.20;;;0.60;96.30;;;;;;5024661;28;20033;-89
2020/12/08 05:17:20;;;;;;;42.13;19.15;;;0.60;96.30;;;;;;5031383;28;20501;-88
2020/12/08 05:19:46;;;;;;;51.28;21.40;;;0.60;96.40;;;;;;5030377;28;20057;-88
2020/12/08 05:22:12;;;;;;;45.85;20.58;;;0.60;96.50;;;;;;5024091;28;20057;-88
2020/12/08 05:24:37;;;;;;;50.25;22.23;;;0.60;96.50;;;;;;5032100;28;20029;-88
2020/12/08 05:27:05;;;;;;;53.28;24.02;;;0.60;96.50;;;;;;5031207;28;20496;-89
2020/12/08 05:29:33;;;;;;;51.80;22.20;;;0.70;96.70;;;;;;5029643;28;20160;-88
2020/12/08 05:32:22;;;;;;;49.58;21.10;;;0.80;96.60;;;;;;5032254;28;20113;-89
2020/12/08 05:34:54;;;;;;;45.50;19.50;;;0.90;96.50;;;;;;5032995;28;20405;-88
2020/12/08 05:37:20;;;;;;;54.88;22.73;;;0.90;96.50;;;;;;5033483;28;20466;-89
2020/12/08 05:39:47;;;;;;;49.80;20.63;;;0.90;96.50;;;;;;5031395;28;20027;-88
2020/12/08 05:42:18;;;;;;;44.78;20.35;;;1.00;96.50;;;;;;5027613;28;20025;-89
2020/12/08 05:44:47;;;;;;;39.95;19.67;;;0.90;96.40;;;;;;5027357;28;20052;-88
2020/12/08 05:47:17;;;;;;;41.53;18.52;;;1.00;96.40;;;;;;5032588;28;20032;-89
2020/12/08 05:49:43;;;;;;;41.80;17.67;;;1.00;96.40;;;;;;5029976;28;20108;-89
2020/12/08 05:52:09;;;;;;;42.95;19.83;;;1.00;96.40;;;;;;5032262;28;20049;-90
2020/12/08 05:54:34;;;;;;;40.80;19.73;;;1.00;96.30;;;;;;5032057;28;20044;-89
2020/12/08 05:57:15;;;;;;;43.83;19.45;;;1.00;96.40;;;;;;5031858;28;20026;-89
2020/12/08 05:59:41;;;;;;;39.50;17.50;;;1.10;96.40;;;;;;5031673;28;20048;-89
2020/12/08 06:02:08;;;;;;;42.35;20.00;;;1.10;96.40;;;;;;5031440;28;20474;-89
2020/12/08 06:04:43;;;;;;;47.13;21.05;;;1.00;96.40;;;;;;5030875;28;20026;-89
2020/12/08 06:07:09;;;;;;;46.38;20.48;;;1.10;96.40;;;;;;5044662;28;20030;-89
2020/12/08 06:09:35;;;;;;;40.55;19.10;;;1.10;96.50;;;;;;5030149;28;20039;-89
2020/12/08 06:12:02;;;;;;;39.22;19.70;;;1.10;96.40;;;;;;5023119;28;20025;-90
2020/12/08 06:14:32;;;;;;;43.65;20.83;;;1.10;96.40;;;;;;5023826;28;20038;-89
2020/12/08 06:17:06;;;;;;;42.50;19.95;;;1.20;96.40;;;;;;5030946;28;20026;-90
2020/12/08 06:19:35;;;;;;;35.72;18.77;;;1.20;96.40;;;;;;5034027;28;20450;-92
2020/12/08 06:22:10;;;;;;;39.47;19.27;;;1.20;96.40;;;;;;5031380;28;20033;-90
2020/12/08 06:24:36;;;;;;;38.78;18.38;;;1.30;96.40;;;;;;5032482;28;20432;-91
2020/12/08 06:27:02;;;;;;;39.42;19.23;;;1.30;96.40;;;;;;5023546;28;20071;-91
2020/12/08 06:29:27;;;;;;;42.15;20.00;;;1.30;96.40;;;;;;5034141;28;20022;-91
2020/12/08 06:31:53;;;;;;;40.83;19.88;;;1.30;96.40;;;;;;5033463;28;20032;-91
2020/12/08 06:34:31;;;;;;;42.17;19.38;;;1.30;96.60;;;;;;5030817;28;20065;-91
2020/12/08 06:37:08;;;;;;;47.25;21.80;;;1.30;96.40;;;;;;5032692;28;20104;-91
2020/12/08 06:39:33;;;;;;;47.97;20.85;;;1.40;96.40;;;;;;5035779;28;20013;-90
2020/12/08 06:41:59;;;;;;;47.65;22.17;;;1.40;96.40;;;;;;5035264;28;20168;-90
2020/12/08 06:44:27;;;;;;;40.58;19.75;;;1.40;96.40;;;;;;5035576;28;20049;-90
2020/12/08 06:46:59;;;;;;;49.30;21.55;;;1.50;96.40;;;;;;5027373;28;20033;-91
2020/12/08 06:49:26;;;;;;;48.78;21.85;;;1.50;96.40;;;;;;5031363;28;20064;-91
2020/12/08 06:51:56;;;;;;;42.75;20.77;;;1.50;96.40;;;;;;5030622;28;20034;-90
2020/12/08 06:54:22;;;;;;;46.80;21.65;;;1.50;96.40;;;;;;5026371;28;20494;-91
2020/12/08 06:56:47;;;;;;;42.10;20.88;;;1.50;96.30;;;;;;5017985;28;20033;-90
2020/12/08 06:59:24;;;;;;;40.97;20.10;;;1.60;96.30;;;;;;5035602;28;20473;-90
2020/12/08 07:01:50;;;;;;;46.40;22.30;;;1.50;96.30;;;;;;5032370;28;20564;-91
2020/12/08 07:04:17;;;;;;;39.92;20.67;;;1.60;96.30;;;;;;5030972;28;20033;-89
2020/12/08 07:06:43;;;;;;;47.50;22.65;;;1.60;96.30;;;;;;5040126;28;20547;-90
2020/12/08 07:09:09;;;;;;;46.78;23.92;;;1.60;96.30;;;;;;5034266;28;20018;-89
2020/12/08 07:11:35;;;;;;;45.17;22.10;;;1.60;96.30;;;;;;5030656;28;20030;-89
2020/12/08 07:14:02;;;;;;;46.50;22.85;;;1.60;96.30;;;;;;5039133;28;20052;-89
2020/12/08 07:16:29;;;;;;;49.78;22.95;;;1.70;96.30;;;;;;5035806;28;20030;-89
2020/12/08 07:18:55;;;;;;;48.55;23.45;;;1.70;96.30;;;;;;5035900;28;20037;-90
2020/12/08 07:21:21;;;;;;;45.05;22.40;;;1.70;96.30;;;;;;5031063;28;20045;-89
2020/12/08 07:23:51;;;;;;;43.65;21.60;;;1.80;96.30;;;;;;5035221;28;20028;-89
2020/12/08 07:26:24;;;;;;;42.72;21.83;;;1.80;96.30;;;;;;5037699;28;20047;-89
2020/12/08 07:28:54;;;;;;;51.08;22.83;;;1.70;96.20;;;;;;5041151;28;20021;-91
2020/12/08 07:31:31;;;;;;;45.83;23.55;;;1.80;96.30;;;;;;5027165;28;20082;-89
2020/12/08 07:34:00;;;;;;;41.88;21.38;;;1.80;96.30;;;;;;5034809;28;20401;-91
2020/12/08 07:36:31;;;;;;;46.70;23.00;;;1.80;96.30;;;;;;5029007;28;20030;-90
2020/12/08 07:38:59;;;;;;;44.17;22.02;;;1.80;96.30;;;;;;5033684;28;20486;-89
2020/12/08 07:41:27;;;;;;;48.67;22.33;;;1.80;96.20;;;;;;5033827;28;20033;-90
2020/12/08 07:43:53;;;;;;;42.75;20.33;;;1.90;96.20;;;;;;5036195;28;20180;-90
2020/12/08 07:46:30;;;;;;;44.95;22.55;;;1.90;96.30;;;;;;5031413;28;20025;-90
2020/12/08 07:49:07;;;;;;;39.15;20.35;;;1.90;96.20;;;;;;5028592;28;20037;-91
2020/12/08 07:51:34;;;;;;;46.88;22.85;;;1.90;96.20;;;;;;5034228;28;20021;-90
2020/12/08 07:54:01;;;;;;;41.65;20.60;;;1.90;96.20;;;;;;5022583;28;20495;-90
2020/12/08 07:56:31;;;;;;;54.80;24.90;;;1.90;96.20;;;;;;5020493;28;20033;-90
2020/12/08 07:58:57;;;;;;;46.75;21.95;;;1.90;96.20;;;;;;5031004;28;20026;-90
2020/12/08 08:01:23;;;;;;;46.97;22.83;;;1.90;96.20;;;;;;5031493;28;20068;-90
2020/12/08 08:03:49;;;;;;;43.67;22.90;;;1.90;96.20;;;;;;5034514;28;20029;-90
2020/12/08 08:06:17;;;;;;;48.33;23.85;;;2.00;96.30;;;;;;5032772;28;20021;-90
2020/12/08 08:08:43;;;;;;;42.40;23.10;;;2.00;96.20;;;;;;5031744;28;20033;-90
2020/12/08 08:11:09;;;;;;;49.38;22.50;;;2.00;96.20;;;;;;5034864;28;20022;-90
2020/12/08 08:13:35;;;;;;;47.72;23.90;;;2.00;96.20;;;;;;5025260;28;20026;-90
2020/12/08 08:16:00;;;;;;;45.60;23.38;;;2.00;96.20;;;;;;5023437;28;20030;-89
2020/12/08 08:18:26;;;;;;;44.70;22.73;;;2.00;96.20;;;;;;5021089;28;20026;-90
2020/12/08 08:20:51;;;;;;;44.03;24.65;;;2.00;96.20;;;;;;5023215;28;20371;-90
2020/12/08 08:23:16;;;;;;;43.45;23.48;;;2.00;96.10;;;;;;5030840;28;20017;-90
2020/12/08 08:25:42;;;;;;;43.35;23.20;;;2.00;96.10;;;;;;5029492;28;20033;-90
2020/12/08 08:28:07;;;;;;;48.50;25.42;;;2.10;96.20;;;;;;5036492;28;20018;-91
2020/12/08 08:30:33;;;;;;;49.85;25.60;;;2.10;96.20;;;;;;5041422;28;20025;-91
2020/12/08 08:32:59;;;;;;;45.95;24.60;;;2.10;96.10;;;;;;5036247;28;20473;-90
2020/12/08 08:35:27;;;;;;;49.67;26.58;;;2.10;96.10;;;;;;5032400;28;20041;-90
2020/12/08 08:37:53;;;;;;;54.33;27.13;;;2.10;96.10;;;;;;5034061;28;20026;-89
2020/12/08 08:40:18;;;;;;;43.70;24.02;;;2.20;96.10;;;;;;5034165;28;20033;-90
2020/12/08 08:42:44;;;;;;;47.05;24.40;;;2.20;96.10;;;;;;5034241;28;20030;-91
2020/12/08 08:45:09;;;;;;;46.63;25.08;;;2.20;96.10;;;;;;5018546;28;20064;-91
2020/12/08 08:47:35;;;;;;;47.13;24.48;;;2.20;96.10;;;;;;5035265;28;20059;-92
2020/12/08 08:50:00;;;;;;;46.63;24.55;;;2.30;96.10;;;;;;5049732;28;20481;-92
2020/12/08 08:52:26;;;;;;;48.58;25.98;;;2.30;96.10;;;;;;5053619;28;20024;-91
2020/12/08 08:54:52;;;;;;;47.65;25.95;;;2.30;96.10;;;;;;5033471;28;20072;-91
2020/12/08 08:57:18;;;;;;;47.30;25.17;;;2.30;96.10;;;;;;5023439;28;20053;-92
2020/12/08 08:59:45;;;;;;;48.00;24.85;;;2.40;96.10;;;;;;5021687;28;20553;-92
2020/12/08 09:02:11;;;;;;;48.20;26.30;;;2.40;96.00;;;;;;5033558;28;20116;-91
2020/12/08 09:04:36;;;;;;;52.35;27.35;;;2.40;96.00;;;;;;5025855;28;20452;-90
2020/12/08 09:07:02;;;;;;;51.08;25.65;;;2.50;96.10;;;;;;5033198;28;20025;-93
2020/12/08 09:09:27;;;;;;;48.90;25.63;;;2.50;96.00;;;;;;5032492;28;20104;-90
2020/12/08 09:11:53;;;;;;;51.22;25.83;;;2.50;96.00;;;;;;5033058;28;20121;-90
2020/12/08 09:14:18;;;;;;;47.35;25.98;;;2.60;96.00;;;;;;5036904;28;20037;-90
2020/12/08 09:16:44;;;;;;;48.75;26.48;;;2.60;96.00;;;;;;5024306;28;20461;-89
2020/12/08 09:19:10;;;;;;;50.45;26.50;;;2.60;96.00;;;;;;5028733;28;20107;-91
2020/12/08 09:21:35;;;;;;;46.75;26.27;;;2.60;96.00;;;;;;5034021;28;20022;-91
2020/12/08 09:24:01;;;;;;;48.40;25.75;;;2.70;96.00;;;;;;5028354;28;20398;-91
2020/12/08 09:26:26;;;;;;;47.50;26.17;;;2.70;96.00;;;;;;5030846;28;20031;-91
2020/12/08 09:28:52;;;;;;;53.92;28.20;;;2.70;96.00;;;;;;5029176;28;20029;-91
2020/12/08 09:31:18;;;;;;;51.25;27.45;;;2.70;95.90;;;;;;5032183;28;20022;-91
2020/12/08 09:33:46;;;;;;;50.45;27.40;;;2.80;95.90;;;;;;5029132;28;20033;-90
2020/12/08 09:36:12;;;;;;;49.78;27.60;;;2.80;95.90;;;;;;5038375;28;20567;-90
2020/12/08 09:38:37;;;;;;;51.63;28.38;;;2.90;96.00;;;;;;5031963;28;20104;-91
2020/12/08 09:41:03;;;;;;;51.67;26.83;;;2.90;95.90;;;;;;5032737;28;20561;-90
2020/12/08 09:43:29;;;;;;;49.22;26.67;;;3.00;96.00;;;;;;5031547;28;20034;-90
2020/12/08 09:45:54;;;;;;;49.78;27.90;;;3.00;96.00;;;;;;5031763;28;20496;-90
2020/12/08 09:48:20;;;;;;;51.53;28.00;;;3.10;95.90;;;;;;5032543;28;20037;-90
2020/12/08 09:50:45;;;;;;;48.60;26.33;;;3.20;95.90;;;;;;5030760;28;20492;-90
2020/12/08 09:53:11;;;;;;;46.63;27.38;;;3.20;95.90;;;;;;5023938;28;20026;-90
2020/12/08 09:55:36;;;;;;;53.47;26.13;;;3.30;95.90;;;;;;5033309;28;20402;-91
2020/12/08 09:58:03;;;;;;;50.65;28.15;;;3.30;95.90;;;;;;5028886;28;20028;-89
2020/12/08 10:00:28;;;;;;;52.38;28.98;;;3.40;95.80;;;;;;5031432;28;20037;-90
2020/12/08 10:02:54;;;;;;;47.72;26.73;;;3.40;95.80;;;;;;5025529;28;20107;-90
2020/12/08 10:05:19;;;;;;;53.95;28.27;;;3.40;95.70;;;;;;5036152;28;20021;-90
2020/12/08 10:07:45;;;;;;;49.80;28.17;;;3.50;95.70;;;;;;5033004;28;20061;-90
2020/12/08 10:10:10;;;;;;;48.65;29.13;;;3.50;95.60;;;;;;5016562;28;20068;-89
2020/12/08 10:12:36;;;;;;;44.45;27.10;;;3.50;95.60;;;;;;5023104;28;20040;-90
2020/12/08 10:15:02;;;;;;;47.28;25.65;;;3.50;95.60;;;;;;5032413;28;20040;-91
2020/12/08 10:17:27;;;;;;;52.15;28.38;;;3.50;95.60;;;;;;5028840;28;20474;-89
2020/12/08 10:19:53;;;;;;;46.65;26.73;;;3.50;95.60;;;;;;5029794;28;20083;-89
2020/12/08 10:22:18;;;;;;;46.65;26.00;;;3.50;95.60;;;;;;5035803;28;20025;-89
2020/12/08 10:24:44;;;;;;;42.85;24.67;;;3.60;95.70;;;;;;5032273;28;20071;-89
2020/12/08 10:27:09;;;;;;;49.22;28.30;;;3.60;95.70;;;;;;5030984;28;20470;-90
2020/12/08 10:29:36;;;;;;;52.88;28.45;;;3.70;95.70;;;;;;5032813;28;20033;-90
2020/12/08 10:32:01;;;;;;;46.78;28.23;;;3.70;95.60;;;;;;5031857;28;20388;-89
2020/12/08 10:34:27;;;;;;;47.80;26.88;;;3.80;95.60;;;;;;5037240;28;20115;-89
2020/12/08 10:36:53;;;;;;;44.10;26.52;;;3.80;95.50;;;;;;5026728;28;20022;-90
2020/12/08 10:39:18;;;;;;;42.83;25.42;;;3.90;95.50;;;;;;5029099;28;20504;-90
2020/12/08 10:41:44;;;;;;;49.30;28.00;;;4.00;95.50;;;;;;5031546;28;20034;-89
2020/12/08 10:44:10;;;;;;;46.88;27.73;;;4.00;95.40;;;;;;5013885;28;20057;-89
2020/12/08 10:46:38;;;;;;;42.75;25.45;;;4.10;95.40;;;;;;5031635;28;20029;-89
2020/12/08 10:49:04;;;;;;;44.70;25.73;;;4.10;95.30;;;;;;5028178;28;20035;-89
2020/12/08 10:51:30;;;;;;;46.65;28.38;;;4.10;95.20;;;;;;5036389;28;20124;-88
2020/12/08 10:53:56;;;;;;;47.50;27.17;;;4.10;95.10;;;;;;5035606;28;20508;-88
2020/12/08 10:56:23;;;;;;;44.67;27.08;;;4.10;95.10;;;;;;5030179;28;20033;-88
2020/12/08 10:58:50;;;;;;;47.58;27.77;;;4.00;95.00;;;;;;5027819;28;20359;-88
2020/12/08 11:01:18;;;;;;;44.47;26.40;;;4.00;95.00;;;;;;5026240;28;20037;-88
2020/12/08 11:03:44;;;;;;;45.28;26.60;;;4.00;95.00;;;;;;5031480;28;20421;-88
2020/12/08 11:06:10;;;;;;;46.50;25.83;;;4.00;95.00;;;;;;5030509;28;20029;-88
2020/12/08 11:08:35;;;;;;;48.00;27.73;;;4.00;95.10;;;;;;5036595;28;20359;-88
2020/12/08 11:11:01;;;;;;;48.05;28.95;;;4.00;95.10;;;;;;5035567;28;20032;-89
2020/12/08 11:13:26;;;;;;;48.53;27.75;;;4.00;95.10;;;;;;5046967;28;20029;-89
2020/12/08 11:15:52;;;;;;;48.83;28.27;;;4.10;95.20;;;;;;5035701;28;20057;-89
2020/12/08 11:18:17;;;;;;;52.08;31.55;;;4.10;95.20;;;;;;5027119;28;20025;-89
2020/12/08 11:20:43;;;;;;;46.65;26.27;;;4.20;95.20;;;;;;5032664;28;20106;-89
2020/12/08 11:23:08;;;;;;;46.03;28.92;;;4.20;95.10;;;;;;5037176;28;20028;-88
2020/12/08 11:25:34;;;;;;;46.65;27.42;;;4.30;95.00;;;;;;5042092;28;20033;-89
2020/12/08 11:28:03;;;;;;;45.47;27.33;;;4.30;95.00;;;;;;5023902;28;20034;-88
2020/12/08 11:30:28;;;;;;;46.20;27.65;;;4.30;95.00;;;;;;5037097;28;20033;-88
2020/12/08 11:32:54;;;;;;;42.75;25.85;;;4.40;94.90;;;;;;5019129;28;20544;-89
2020/12/08 11:35:20;;;;;;;46.90;27.25;;;4.40;94.90;;;;;;5017800;28;20081;-88
2020/12/08 11:37:45;;;;;;;47.40;28.25;;;4.40;94.80;;;;;;5032342;28;20017;-88
2020/12/08 11:40:11;;;;;;;43.33;26.02;;;4.40;94.90;;;;;;5035077;28;20068;-88
2020/12/08 11:42:36;;;;;;;43.80;26.30;;;4.50;94.90;;;;;;5035080;28;20517;-88
2020/12/08 11:45:02;;;;;;;49.92;28.60;;;4.50;94.80;;;;;;5034618;28;20046;-89
2020/12/08 11:47:27;;;;;;;46.88;27.02;;;4.50;94.80;;;;;;5035150;28;20025;-89
2020/12/08 11:49:53;;;;;;;42.88;27.55;;;4.60;94.80;;;;;;5035017;28;20107;-87
2020/12/08 11:52:18;;;;;;;43.58;27.13;;;4.60;94.70;;;;;;5042638;28;20040;-87
2020/12/08 11:54:44;;;;;;;46.33;27.75;;;4.60;94.60;;;;;;5032671;28;20049;-87
2020/12/08 11:57:09;;;;;;;43.20;26.77;;;4.60;94.60;;;;;;5040774;28;20021;-87
2020/12/08 11:59:35;;;;;;;46.17;27.58;;;4.70;94.60;;;;;;5035073;28;20025;-88
2020/12/08 12:02:00;;;;;;;48.13;26.98;;;4.70;94.60;;;;;;5022899;28;20116;-88
2020/12/08 12:04:26;;;;;;;46.42;27.35;;;4.90;94.60;;;;;;5034210;28;20083;-88
2020/12/08 12:06:51;;;;;;;44.60;27.88;;;4.90;94.50;;;;;;5034580;28;20073;-88
2020/12/08 12:09:17;;;;;;;45.58;27.25;;;5.00;94.70;;;;;;5029736;28;20021;-88
2020/12/08 12:11:43;;;;;;;44.80;26.95;;;5.10;94.40;;;;;;5033916;28;20136;-88
2020/12/08 12:14:08;;;;;;;41.45;27.08;;;5.30;94.20;;;;;;5034500;28;20470;-88
2020/12/08 12:16:34;;;;;;;41.70;25.92;;;5.30;94.00;;;;;;5031960;28;20029;-89
2020/12/08 12:18:59;;;;;;;40.53;26.52;;;5.30;93.90;;;;;;5030371;28;20044;-87
2020/12/08 12:21:25;;;;;;;44.40;26.58;;;5.40;93.80;;;;;;5034842;28;20021;-88
2020/12/08 12:23:50;;;;;;;40.10;24.90;;;5.40;93.80;;;;;;5033867;28;20382;-88
2020/12/08 12:26:16;;;;;;;40.17;25.35;;;5.40;93.70;;;;;;5026101;28;20034;-89
2020/12/08 12:28:42;;;;;;;43.00;25.50;;;5.40;93.60;;;;;;5034554;28;20040;-89
2020/12/08 12:31:07;;;;;;;39.47;24.75;;;5.40;93.60;;;;;;5033600;28;20044;-89
2020/12/08 12:33:34;;;;;;;39.53;25.10;;;5.30;93.50;;;;;;5033187;28;20103;-89